Tropical Cyclones
[Index]
Main Index Home Page Stock Weather Photos Extreme Storms Discussion Storm News and Storm Chasing Reports Tropical Cyclones / Hurricanes / Typhoons Weather Data and Links Wild Fires / Bushfires Weather Observation Techniques Weather Picture Catalogue Tornado Pictures and Reports Stock Video Footage and DVDs for sale
Season 1948-1949 Tropical Cyclone 194909 Track Map
Season 1948-1949 Summaries: [BoM-AU] [JTWC-AU] [JTWC-SIO] [JTWC-SPAC] [JTWC-SH]
<<- Previous TC | JTWC 1948-1949 Season | Next TC ->>

click for intensity scale information  Lat/long Grid: Show Hide

 Date Labels: Show Hide

Joint Typhoon Warning Centre Cyclone Data

Name: 194909
Number: 92 / 4909

17 Jan 1949 00:00 UTC to 24 Jan 1949 00:00 UTC

    date/time    lat    long     hPa   cat  kts
1949-01-17 00    9.3   170.6                              
1949-01-17 06   10.1   169.7                              
1949-01-17 12   10.8   169.0                              
1949-01-17 18   11.4   168.5                              
1949-01-18 00   12.0   168.0                              
1949-01-18 06   13.2   167.5                              
1949-01-18 12   14.5   167.4                              
1949-01-18 18   15.6   167.9                              
1949-01-19 00   16.5   168.7                              
1949-01-19 06   17.2   169.5                              
1949-01-19 12   17.8   170.3                              
1949-01-19 18   18.3   170.9                              
1949-01-20 00   19.0   171.6                              
1949-01-20 06   20.0   172.8                              
1949-01-20 12   21.0   174.0                              
1949-01-20 18   22.0   175.2                              
1949-01-21 00   23.0   176.5                              
1949-01-21 06   24.1   178.4                              
1949-01-21 12   25.2   179.4W                             
1949-01-21 18   26.0   177.2W                             
1949-01-22 00   26.5   175.0W                             
1949-01-22 06   26.8   172.5W                             
1949-01-22 12   27.2   170.0W                             
1949-01-22 18   27.6   168.0W                             
1949-01-23 00   28.0   166.0W                             
1949-01-23 06   28.5   163.0W                             
1949-01-23 12   29.0   160.0W                             
1949-01-23 18   29.5   157.6W                             
1949-01-24 00   30.0   155.5W                             
Winds are 1-min average.

Tropical cyclone tracks developed by Michael Bath using data from the Joint Typhoon Warning Centre Best Tracks and Google Maps.


[Australian Severe Weather index] [Copyright Notice] [Email Contacts] [Search This Site] [Privacy Policy]
Document: tropical_cyclone_194909.htm Updated: 18 September 2016